createdAt,value
2023-04-09T00:02:26.729Z,6.20
2023-04-09T00:07:30.468Z,6.20
2023-04-09T00:12:32.693Z,6.10
2023-04-09T00:17:35.065Z,6.20
2023-04-09T00:22:38.948Z,6.20
2023-04-09T00:27:40.911Z,6.10
2023-04-09T00:32:43.446Z,6.10
2023-04-09T00:37:47.277Z,6.30
2023-04-09T00:42:49.430Z,6.10
2023-04-09T00:47:52.079Z,6.20
2023-04-09T00:52:55.891Z,6.10
2023-04-09T00:57:57.998Z,6.10
2023-04-09T01:03:01.841Z,6.20
2023-04-09T01:08:10.131Z,6.20
2023-04-09T01:13:17.480Z,6.10
2023-04-09T01:18:26.432Z,6.10
2023-04-09T01:23:44.508Z,6.00
2023-04-09T01:28:52.257Z,5.90
2023-04-09T01:33:54.803Z,5.80
2023-04-09T01:38:58.331Z,5.80
2023-04-09T01:44:04.442Z,5.70
2023-04-09T01:49:07.330Z,5.70
2023-04-09T01:54:10.112Z,5.60
2023-04-09T01:59:13.835Z,5.60
2023-04-09T02:04:23.021Z,5.60
2023-04-09T02:09:27.064Z,5.70
2023-04-09T02:14:33.021Z,5.70
2023-04-09T02:19:42.407Z,5.60
2023-04-09T02:24:44.667Z,5.60
2023-04-09T02:29:48.446Z,5.50
2023-04-09T02:34:50.382Z,5.60
2023-04-09T02:39:52.705Z,5.70
2023-04-09T02:44:56.267Z,5.70
2023-04-09T02:49:58.304Z,5.70
2023-04-09T02:55:00.343Z,5.90
2023-04-09T03:00:04.036Z,5.90
2023-04-09T03:05:06.891Z,5.90
2023-04-09T03:10:09.699Z,5.90
2023-04-09T03:15:13.295Z,5.90
2023-04-09T03:20:15.507Z,5.90
2023-04-09T03:25:19.803Z,5.90
2023-04-09T03:30:23.323Z,5.90
2023-04-09T03:35:25.531Z,5.80
2023-04-09T03:40:27.783Z,5.80
2023-04-09T03:45:32.515Z,5.80
2023-04-09T03:50:40.366Z,5.80
2023-04-09T03:55:42.376Z,5.80
2023-04-09T04:00:46.470Z,5.80
2023-04-09T04:05:48.765Z,5.70
2023-04-09T04:10:50.617Z,5.70
2023-04-09T04:15:54.496Z,5.70
2023-04-09T04:20:56.632Z,5.60
2023-04-09T04:25:58.941Z,5.60
2023-04-09T04:31:02.550Z,5.50
2023-04-09T04:36:08.355Z,5.50
2023-04-09T04:41:11.578Z,5.50
2023-04-09T04:46:14.968Z,5.50
2023-04-09T04:51:16.943Z,5.50
2023-04-09T04:56:18.923Z,5.50
2023-04-09T05:01:22.224Z,5.50
2023-04-09T05:06:24.666Z,5.50
2023-04-09T05:11:26.866Z,5.60
2023-04-09T05:16:30.082Z,5.80
2023-04-09T05:21:32.281Z,5.90
2023-04-09T05:26:34.457Z,5.90
2023-04-09T05:31:38.070Z,5.90
2023-04-09T05:36:40.031Z,5.80
2023-04-09T05:41:42.810Z,5.90
2023-04-09T05:46:46.359Z,5.80
2023-04-09T05:51:49.919Z,5.90
2023-04-09T05:56:52.676Z,5.90
2023-04-09T06:01:56.336Z,5.90
2023-04-09T06:07:00.465Z,5.90
2023-04-09T06:12:02.866Z,6.00
2023-04-09T06:17:06.632Z,6.10
2023-04-09T06:22:11.324Z,6.40
2023-04-09T06:27:14.426Z,6.60
2023-04-09T06:32:18.613Z,6.80
2023-04-09T06:37:21.061Z,7.00
2023-04-09T06:42:22.834Z,7.10
2023-04-09T06:47:26.244Z,7.70
2023-04-09T06:52:28.744Z,7.70
2023-04-09T06:57:31.398Z,7.70
2023-04-09T07:02:35.490Z,7.90
2023-04-09T07:07:37.764Z,8.10
2023-04-09T07:12:40.160Z,8.20
2023-04-09T07:17:44.197Z,8.50
2023-04-09T07:22:46.705Z,8.60
2023-04-09T07:27:50.115Z,8.90
2023-04-09T07:32:53.900Z,9.00
2023-04-09T07:38:05.968Z,9.10
2023-04-09T07:43:08.944Z,9.40
2023-04-09T07:48:13.135Z,9.40
2023-04-09T07:53:15.078Z,9.40
2023-04-09T07:58:17.578Z,9.60
2023-04-09T08:03:21.935Z,9.70
2023-04-09T08:08:24.165Z,10.00
2023-04-09T08:13:26.158Z,10.60
2023-04-09T08:18:30.048Z,10.60
2023-04-09T08:23:32.568Z,10.90
2023-04-09T08:28:34.949Z,11.60
2023-04-09T08:33:38.701Z,12.40
2023-04-09T08:38:42.218Z,12.30
2023-04-09T08:43:57.111Z,12.10
2023-04-09T08:49:02.137Z,13.00
2023-04-09T08:54:05.342Z,13.40
2023-04-09T08:59:10.238Z,14.60
2023-04-09T09:04:14.124Z,14.80
2023-04-09T09:09:17.546Z,15.80
2023-04-09T09:14:21.441Z,16.40
2023-04-09T09:19:33.784Z,17.00
2023-04-09T09:24:35.967Z,17.40
2023-04-09T09:29:45.223Z,16.70
2023-04-09T09:35:01.498Z,17.20
2023-04-09T09:40:04.393Z,17.70
2023-04-09T09:45:19.530Z,18.00
2023-04-09T09:50:26.539Z,18.30
2023-04-09T09:55:33.665Z,18.70
2023-04-09T10:00:39.703Z,19.20
2023-04-09T10:05:44.454Z,19.40
2023-04-09T10:10:50.438Z,19.60
2023-04-09T10:15:53.807Z,20.00
2023-04-09T10:21:01.537Z,18.10
2023-04-09T10:26:04.517Z,18.30
2023-04-09T10:31:08.136Z,19.90
2023-04-09T10:36:14.358Z,21.20
2023-04-09T10:41:23.017Z,21.50
2023-04-09T10:46:29.724Z,21.80
2023-04-09T10:51:39.169Z,22.10
2023-04-09T10:56:41.714Z,22.40
2023-04-09T11:01:55.068Z,22.60
2023-04-09T11:06:58.740Z,21.30
2023-04-09T11:12:02.110Z,21.80
2023-04-09T11:17:05.191Z,22.20
2023-04-09T11:22:08.421Z,22.50
2023-04-09T11:27:10.357Z,23.50
2023-04-09T11:32:14.728Z,23.00
2023-04-09T11:37:18.965Z,23.30
2023-04-09T11:42:22.220Z,23.80
2023-04-09T11:47:25.131Z,24.00
2023-04-09T11:52:30.946Z,24.50
2023-04-09T11:57:43.025Z,24.40
2023-04-09T12:02:47.677Z,24.80
2023-04-09T12:07:56.401Z,25.70
2023-04-09T12:13:03.425Z,25.20
2023-04-09T12:18:09.218Z,26.10
2023-04-09T12:23:14.070Z,26.20
2023-04-09T12:28:18.766Z,26.30
2023-04-09T12:33:21.299Z,24.80
2023-04-09T12:38:24.717Z,24.80
2023-04-09T12:43:27.023Z,23.20
2023-04-09T12:48:29.306Z,22.80
2023-04-09T12:53:32.691Z,23.30
2023-04-09T12:58:35.442Z,25.60
2023-04-09T13:03:37.828Z,25.90
2023-04-09T13:08:41.368Z,25.90
2023-04-09T13:13:43.860Z,25.80
2023-04-09T13:18:46.104Z,25.30
2023-04-09T13:23:50.720Z,25.80
2023-04-09T13:28:54.250Z,23.50
2023-04-09T13:33:58.133Z,23.40
2023-04-09T13:39:06.070Z,26.60
2023-04-09T13:44:09.848Z,24.80
2023-04-09T13:49:14.689Z,26.80
2023-04-09T13:54:19.946Z,28.60
2023-04-09T13:59:22.025Z,28.00
2023-04-09T14:04:24.216Z,28.30
2023-04-09T14:09:28.260Z,28.00
2023-04-09T14:14:30.541Z,26.80
2023-04-09T14:19:32.853Z,27.50
2023-04-09T14:24:40.320Z,25.20
2023-04-09T14:29:42.519Z,26.20
2023-04-09T14:34:44.907Z,27.20
2023-04-09T14:39:48.622Z,26.90
2023-04-09T14:44:51.123Z,27.00
2023-04-09T14:49:53.386Z,27.60
2023-04-09T14:54:57.098Z,27.80
2023-04-09T14:59:59.788Z,25.50
2023-04-09T15:05:02.158Z,26.40
2023-04-09T15:10:06.478Z,24.90
2023-04-09T15:15:10.187Z,26.80
2023-04-09T15:20:14.030Z,26.60
2023-04-09T15:25:17.898Z,26.30
2023-04-09T15:30:20.052Z,23.30
2023-04-09T15:35:25.387Z,23.00
2023-04-09T15:40:30.948Z,23.50
2023-04-09T15:45:34.806Z,23.80
2023-04-09T15:50:37.226Z,22.60
2023-04-09T15:55:40.880Z,22.70
2023-04-09T16:00:43.115Z,22.10
2023-04-09T16:05:45.403Z,20.70
2023-04-09T16:10:49.314Z,20.50
2023-04-09T16:15:51.355Z,21.90
2023-04-09T16:20:55.040Z,20.60
2023-04-09T16:25:58.429Z,19.60
2023-04-09T16:31:01.391Z,19.70
2023-04-09T16:36:03.656Z,18.70
2023-04-09T16:41:07.713Z,18.20
2023-04-09T16:46:10.981Z,17.90
2023-04-09T16:51:13.482Z,17.40
2023-04-09T16:56:17.140Z,17.10
2023-04-09T17:01:19.386Z,17.10
2023-04-09T17:06:21.588Z,17.10
2023-04-09T17:11:25.663Z,16.10
2023-04-09T17:16:28.193Z,15.80
2023-04-09T17:21:30.288Z,15.70
2023-04-09T17:26:34.406Z,15.70
2023-04-09T17:31:36.871Z,15.50
2023-04-09T17:36:39.291Z,14.70
2023-04-09T17:41:43.975Z,14.10
2023-04-09T17:46:46.892Z,13.50
2023-04-09T17:51:49.394Z,13.00
2023-04-09T17:56:52.964Z,12.60
2023-04-09T18:01:56.826Z,12.20
2023-04-09T18:06:59.403Z,11.90
2023-04-09T18:12:02.906Z,11.40
2023-04-09T18:17:05.213Z,10.90
2023-04-09T18:22:07.363Z,10.50
2023-04-09T18:27:12.496Z,10.20
2023-04-09T18:32:15.131Z,9.90
2023-04-09T18:37:17.629Z,9.70
2023-04-09T18:42:21.942Z,9.80
2023-04-09T18:47:24.192Z,10.10
2023-04-09T18:52:26.750Z,9.90
2023-04-09T18:57:31.007Z,9.80
2023-04-09T19:02:33.575Z,9.60
2023-04-09T19:07:36.467Z,9.50
2023-04-09T19:12:47.170Z,9.40
2023-04-09T19:17:49.401Z,9.00
2023-04-09T19:22:56.692Z,8.90
2023-04-09T19:28:00.143Z,8.80
2023-04-09T19:33:02.717Z,9.00
2023-04-09T19:38:05.294Z,8.60
2023-04-09T19:43:09.014Z,8.50
2023-04-09T19:48:11.825Z,8.30
2023-04-09T19:53:14.361Z,8.10
2023-04-09T19:58:35.125Z,7.90
2023-04-09T20:03:37.733Z,7.80
2023-04-09T20:08:39.862Z,7.70
2023-04-09T20:13:43.434Z,8.00
2023-04-09T20:18:45.592Z,7.90
2023-04-09T20:23:48.352Z,8.00
2023-04-09T20:28:52.120Z,8.00
2023-04-09T20:33:54.537Z,8.10
2023-04-09T20:38:57.525Z,7.80
2023-04-09T20:44:01.308Z,7.40
2023-04-09T20:49:39.644Z,7.20
2023-04-09T20:55:05.676Z,6.90
2023-04-09T21:00:30.695Z,6.70
2023-04-09T21:05:33.488Z,6.60
2023-04-09T21:10:36.006Z,6.40
2023-04-09T21:15:41.684Z,6.40
2023-04-09T21:20:45.640Z,6.20
2023-04-09T21:25:48.350Z,6.00
2023-04-09T21:30:52.087Z,5.90
2023-04-09T21:35:55.068Z,6.10
2023-04-09T21:40:57.530Z,6.10
2023-04-09T21:46:01.343Z,6.00
2023-04-09T21:51:04.163Z,5.80
2023-04-09T21:56:07.121Z,5.80
2023-04-09T22:01:22.421Z,5.60
2023-04-09T22:06:31.283Z,5.40
2023-04-09T22:11:34.608Z,5.30
2023-04-09T22:16:38.846Z,5.30
2023-04-09T22:21:41.417Z,5.30
2023-04-09T22:26:46.799Z,5.10
2023-04-09T22:31:51.419Z,4.80
2023-04-09T22:36:54.298Z,4.80
2023-04-09T22:41:56.836Z,5.00
2023-04-09T22:47:00.410Z,5.00
2023-04-09T22:52:02.910Z,5.00
2023-04-09T22:57:05.030Z,4.80
2023-04-09T23:02:08.786Z,4.70
2023-04-09T23:07:11.244Z,4.60
2023-04-09T23:12:13.374Z,4.70
2023-04-09T23:17:17.110Z,4.70
2023-04-09T23:22:19.730Z,4.60
2023-04-09T23:27:28.538Z,4.50
2023-04-09T23:32:32.635Z,4.40
2023-04-09T23:37:35.024Z,4.70
2023-04-09T23:42:37.317Z,4.60
2023-04-09T23:47:41.531Z,4.40
2023-04-09T23:52:48.681Z,4.10
2023-04-09T23:57:51.483Z,4.10
